createdAt,value
2018-12-20T00:01:34.865Z,9.30
2018-12-20T00:06:37.911Z,8.60
2018-12-20T00:11:41.048Z,9.13
2018-12-20T00:16:44.147Z,9.53
2018-12-20T00:21:47.267Z,9.13
2018-12-20T00:26:50.374Z,8.87
2018-12-20T00:31:53.455Z,10.10
2018-12-20T00:36:56.603Z,10.53
2018-12-20T00:41:59.720Z,10.47
2018-12-20T00:47:02.942Z,9.90
2018-12-20T00:52:06.365Z,9.77
2018-12-20T00:57:09.559Z,9.37
2018-12-20T01:02:12.674Z,7.60
2018-12-20T01:07:15.930Z,6.43
2018-12-20T01:12:19.128Z,6.10
2018-12-20T01:17:22.247Z,5.90
2018-12-20T01:22:25.510Z,6.33
2018-12-20T01:27:28.759Z,6.47
2018-12-20T01:32:31.951Z,6.53
2018-12-20T01:37:35.133Z,6.63
2018-12-20T01:42:38.237Z,7.10
2018-12-20T01:47:41.383Z,7.17
2018-12-20T01:52:44.581Z,7.33
2018-12-20T01:57:47.857Z,8.23
2018-12-20T02:02:50.941Z,8.40
2018-12-20T02:07:54.079Z,8.80
2018-12-20T02:12:57.201Z,7.77
2018-12-20T02:18:00.394Z,7.47
2018-12-20T02:23:03.643Z,6.07
2018-12-20T02:28:06.901Z,6.13
2018-12-20T02:33:10.086Z,6.17
2018-12-20T02:38:13.322Z,6.05
2018-12-20T02:43:16.611Z,5.83
2018-12-20T02:48:19.980Z,7.00
2018-12-20T02:53:23.337Z,6.60
2018-12-20T02:58:26.727Z,6.23
2018-12-20T03:03:30.008Z,6.00
2018-12-20T03:08:33.423Z,4.80
2018-12-20T03:13:36.622Z,3.77
2018-12-20T03:18:39.856Z,3.70
2018-12-20T03:23:43.175Z,3.47
2018-12-20T03:28:46.374Z,3.27
2018-12-20T03:33:49.575Z,3.63
2018-12-20T03:38:52.771Z,3.43
2018-12-20T03:43:56.119Z,3.60
2018-12-20T03:48:59.332Z,2.70
2018-12-20T03:54:02.525Z,2.90
2018-12-20T03:59:05.798Z,3.00
2018-12-20T04:04:08.959Z,3.07
2018-12-20T04:09:12.149Z,2.90
2018-12-20T04:14:15.440Z,2.75
2018-12-20T04:19:18.592Z,2.87
2018-12-20T04:24:21.713Z,2.80
2018-12-20T04:29:24.986Z,3.20
2018-12-20T04:34:28.122Z,2.80
2018-12-20T04:39:31.383Z,3.10
2018-12-20T04:44:34.749Z,2.40
2018-12-20T04:49:37.903Z,2.93
2018-12-20T04:54:40.997Z,2.87
2018-12-20T04:59:44.269Z,2.80
2018-12-20T05:04:47.426Z,2.50
2018-12-20T05:09:50.664Z,2.67
2018-12-20T05:14:53.735Z,2.60
2018-12-20T05:19:56.971Z,2.50
2018-12-20T05:25:00.164Z,2.57
2018-12-20T05:30:03.944Z,2.83
2018-12-20T05:35:07.293Z,2.77
2018-12-20T05:40:10.519Z,2.80
2018-12-20T05:45:13.629Z,2.50
2018-12-20T05:50:17.161Z,2.20
2018-12-20T05:55:20.235Z,3.60
2018-12-20T06:00:23.375Z,3.30
2018-12-20T06:05:26.479Z,3.60
2018-12-20T06:10:29.644Z,3.17
2018-12-20T06:15:33.654Z,2.35
2018-12-20T06:20:36.782Z,2.07
2018-12-20T06:25:39.873Z,1.67
2018-12-20T06:30:43.011Z,1.70
2018-12-20T06:35:46.078Z,1.63
2018-12-20T06:40:49.155Z,1.63
2018-12-20T06:45:52.229Z,1.73
2018-12-20T06:50:55.302Z,1.67
2018-12-20T06:55:58.375Z,1.80
2018-12-20T07:01:01.507Z,1.47
2018-12-20T07:06:04.578Z,1.50
2018-12-20T07:11:07.698Z,1.73
2018-12-20T07:16:10.775Z,1.80
2018-12-20T07:21:13.845Z,1.63
2018-12-20T07:26:16.919Z,1.53
2018-12-20T07:31:19.987Z,1.50
2018-12-20T07:36:23.091Z,1.70
2018-12-20T07:41:26.165Z,1.70
2018-12-20T07:46:37.555Z,1.77
2018-12-20T07:51:34.294Z,1.60
2018-12-20T07:56:37.360Z,1.60
2018-12-20T08:01:40.506Z,1.60
2018-12-20T08:06:43.578Z,2.00
2018-12-20T08:11:46.682Z,1.97
2018-12-20T08:16:49.756Z,1.97
2018-12-20T08:21:52.858Z,1.90
2018-12-20T08:26:55.930Z,1.87
2018-12-20T08:31:59.017Z,1.80
2018-12-20T08:37:02.089Z,2.17
2018-12-20T08:42:05.201Z,1.60
2018-12-20T08:47:08.271Z,2.00
2018-12-20T08:52:11.347Z,1.90
2018-12-20T08:57:14.434Z,1.90
2018-12-20T09:02:17.582Z,1.80
2018-12-20T09:07:20.655Z,1.67
2018-12-20T09:12:23.727Z,1.83
2018-12-20T09:17:26.805Z,2.07
2018-12-20T09:22:29.878Z,1.77
2018-12-20T09:27:33.010Z,1.70
2018-12-20T09:32:36.051Z,1.63
2018-12-20T09:37:39.119Z,1.42
2018-12-20T09:42:42.230Z,1.70
2018-12-20T09:48:00.134Z,1.70
2018-12-20T09:53:03.394Z,1.77
2018-12-20T09:58:06.507Z,1.80
2018-12-20T10:03:09.584Z,2.27
2018-12-20T10:08:12.660Z,1.90
2018-12-20T10:13:15.719Z,1.47
2018-12-20T10:18:18.859Z,1.60
2018-12-20T10:23:21.914Z,1.70
2018-12-20T10:28:24.994Z,1.60
2018-12-20T10:33:28.066Z,1.20
2018-12-20T10:38:31.133Z,1.23
2018-12-20T10:43:34.227Z,1.20
2018-12-20T10:48:37.377Z,1.30
2018-12-20T10:53:40.551Z,1.30
2018-12-20T10:58:43.623Z,1.50
2018-12-20T11:03:46.929Z,1.07
2018-12-20T11:08:55.714Z,0.97
2018-12-20T11:13:58.786Z,1.30
2018-12-20T11:19:01.934Z,2.40
2018-12-20T11:24:05.001Z,1.17
2018-12-20T11:29:08.062Z,1.60
2018-12-20T11:34:11.146Z,1.43
2018-12-20T11:39:14.338Z,1.83
2018-12-20T11:44:17.405Z,1.20
2018-12-20T11:49:20.501Z,1.10
2018-12-20T11:54:23.601Z,1.03
2018-12-20T11:59:26.681Z,0.83
2018-12-20T12:04:29.757Z,1.20
2018-12-20T12:09:32.867Z,1.23
2018-12-20T12:14:35.959Z,2.50
2018-12-20T12:19:39.033Z,1.10
2018-12-20T12:24:42.120Z,0.80
2018-12-20T12:29:45.255Z,0.95
2018-12-20T12:34:48.342Z,1.03
2018-12-20T12:39:51.446Z,1.00
2018-12-20T12:44:54.541Z,0.90
2018-12-20T12:49:57.614Z,1.30
2018-12-20T12:55:00.694Z,1.00
2018-12-20T13:00:08.689Z,1.20
2018-12-20T13:05:11.856Z,1.10
2018-12-20T13:10:15.055Z,2.60
2018-12-20T13:15:18.167Z,1.60
2018-12-20T13:20:21.279Z,1.60
2018-12-20T13:25:24.383Z,1.37
2018-12-20T13:30:27.468Z,1.30
2018-12-20T13:35:30.619Z,1.20
2018-12-20T13:40:33.715Z,1.43
2018-12-20T13:45:36.828Z,1.57
2018-12-20T13:50:39.932Z,1.40
2018-12-20T13:55:43.033Z,1.30
2018-12-20T14:00:46.098Z,1.60
2018-12-20T14:05:49.165Z,1.40
2018-12-20T14:10:52.318Z,1.20
2018-12-20T14:15:55.395Z,1.30
2018-12-20T14:21:00.130Z,1.40
2018-12-20T14:26:03.282Z,1.40
2018-12-20T14:31:06.398Z,1.23
2018-12-20T14:36:09.543Z,1.53
2018-12-20T14:41:12.682Z,1.50
2018-12-20T14:46:15.765Z,1.60
2018-12-20T14:51:18.870Z,1.30
2018-12-20T14:56:21.938Z,1.63
2018-12-20T15:01:25.091Z,1.60
2018-12-20T15:06:28.171Z,1.60
2018-12-20T15:11:31.241Z,1.83
2018-12-20T15:16:34.313Z,1.60
2018-12-20T15:21:37.379Z,1.93
2018-12-20T15:26:40.468Z,1.63
2018-12-20T15:31:43.534Z,1.53
2018-12-20T15:36:46.670Z,1.60
2018-12-20T15:41:49.777Z,1.33
2018-12-20T15:46:52.887Z,1.70
2018-12-20T15:51:55.973Z,1.90
2018-12-20T15:56:59.059Z,2.23
2018-12-20T16:02:02.122Z,2.00
2018-12-20T16:07:05.239Z,2.17
2018-12-20T16:12:08.320Z,2.03
2018-12-20T16:17:11.465Z,1.93
2018-12-20T16:22:14.596Z,1.90
2018-12-20T16:27:17.726Z,1.90
2018-12-20T16:32:20.854Z,1.90
2018-12-20T16:37:23.973Z,2.20
2018-12-20T16:42:27.047Z,1.83
2018-12-20T16:47:30.150Z,1.80
2018-12-20T16:52:33.334Z,1.67
2018-12-20T16:57:36.465Z,1.83
2018-12-20T17:02:39.652Z,2.13
2018-12-20T17:07:42.763Z,2.00
2018-12-20T17:12:45.962Z,1.83
2018-12-20T17:17:49.029Z,1.80
2018-12-20T17:22:52.114Z,2.37
2018-12-20T17:27:55.196Z,2.30
2018-12-20T17:32:58.270Z,2.10
2018-12-20T17:38:01.355Z,2.15
2018-12-20T17:43:04.480Z,4.27
2018-12-20T17:48:07.551Z,2.30
2018-12-20T17:53:10.683Z,2.20
2018-12-20T17:58:13.805Z,3.60
2018-12-20T18:03:16.896Z,2.30
2018-12-20T18:08:19.983Z,2.90
2018-12-20T18:13:23.127Z,2.37
2018-12-20T18:18:26.228Z,2.23
2018-12-20T18:23:29.410Z,2.30
2018-12-20T18:28:32.511Z,2.10
2018-12-20T18:33:35.616Z,27.93
2018-12-20T18:38:38.730Z,2.23
2018-12-20T18:43:41.832Z,2.13
2018-12-20T18:48:44.967Z,2.40
2018-12-20T18:53:48.077Z,2.70
2018-12-20T18:58:51.189Z,3.00
2018-12-20T19:03:54.299Z,2.60
2018-12-20T19:08:57.394Z,2.53
2018-12-20T19:14:00.486Z,2.60
2018-12-20T19:19:03.691Z,3.00
2018-12-20T19:24:07.218Z,2.60
2018-12-20T19:29:10.335Z,2.90
2018-12-20T19:34:13.441Z,3.27
2018-12-20T19:39:16.567Z,2.40
2018-12-20T19:44:19.674Z,2.93
2018-12-20T19:49:22.809Z,2.30
2018-12-20T19:54:25.903Z,2.67
2018-12-20T19:59:28.988Z,2.57
2018-12-20T20:04:32.072Z,2.90
2018-12-20T20:09:35.251Z,3.20
2018-12-20T20:14:38.402Z,2.50
2018-12-20T20:19:41.562Z,2.60
2018-12-20T20:24:44.673Z,2.57
2018-12-20T20:29:47.816Z,2.40
2018-12-20T20:34:50.944Z,2.33
2018-12-20T20:39:54.056Z,2.07
2018-12-20T20:44:57.262Z,2.90
2018-12-20T20:50:00.350Z,2.33
2018-12-20T20:55:05.761Z,2.10
2018-12-20T21:00:10.444Z,2.30
2018-12-20T21:05:13.598Z,2.40
2018-12-20T21:10:16.698Z,2.47
2018-12-20T21:15:19.819Z,2.20
2018-12-20T21:20:30.449Z,2.03
2018-12-20T21:25:28.047Z,2.20
2018-12-20T21:30:31.181Z,2.10
2018-12-20T21:35:34.394Z,2.50
2018-12-20T21:40:37.496Z,2.43
2018-12-20T21:45:40.618Z,2.30
2018-12-20T21:50:43.692Z,2.37
2018-12-20T21:55:46.794Z,2.17
2018-12-20T22:00:49.858Z,2.03
2018-12-20T22:05:52.925Z,2.37
2018-12-20T22:10:56.006Z,2.00
2018-12-20T22:16:00.061Z,2.20
2018-12-20T22:21:03.126Z,2.50
2018-12-20T22:26:06.203Z,2.10
2018-12-20T22:31:09.266Z,2.30
2018-12-20T22:36:12.336Z,2.10
2018-12-20T22:41:15.566Z,2.05
2018-12-20T22:46:18.703Z,2.17
2018-12-20T22:51:21.828Z,2.10
2018-12-20T22:56:24.885Z,2.27
2018-12-20T23:01:28.013Z,2.00
2018-12-20T23:06:31.079Z,1.83
2018-12-20T23:11:35.072Z,2.27
2018-12-20T23:16:38.145Z,2.03
2018-12-20T23:21:41.221Z,1.97
2018-12-20T23:26:44.310Z,1.87
2018-12-20T23:31:47.421Z,2.20
2018-12-20T23:36:50.543Z,1.90
2018-12-20T23:41:53.727Z,2.10
2018-12-20T23:46:57.769Z,2.47
2018-12-20T23:52:00.945Z,1.80
2018-12-20T23:57:04.078Z,2.00
